Time;durP1;ratioP1;P1;durP2;ratioP2;P2;SDS_P1;SDS_P2;PMS_P1;PMS_P2;Temp;Humidity;BMP_temperature;BMP_pressure;BME280_temperature;BME280_humidity;BME280_pressure;Samples;Min_cycle;Max_cycle;Signal;HPM_P1;HPM_P2
2022/09/18 00:01:41;;;;;;;28.60;17.80;;;;;;;11.21;64.59;97627.21;105980;1274;97988;-64
2022/09/18 00:04:13;;;;;;;30.90;18.60;;;;;;;11.21;64.76;97621.89;106146;1274;108397;-66
2022/09/18 00:06:44;;;;;;;29.70;18.00;;;;;;;11.21;64.60;97620.86;106065;1274;97967;-64
2022/09/18 00:09:15;;;;;;;27.40;15.70;;;;;;;11.18;64.75;97617.05;106184;1274;99091;-63
2022/09/18 00:11:48;;;;;;;30.10;17.80;;;;;;;11.16;64.77;97612.95;106210;1274;111365;-65
2022/09/18 00:14:21;;;;;;;30.80;18.20;;;;;;;11.15;64.71;97610.44;106129;1274;97914;-64
2022/09/18 00:16:50;;;;;;;30.60;19.00;;;;;;;11.13;65.00;97612.06;106167;1274;108926;-64
2022/09/18 00:19:21;;;;;;;30.20;18.40;;;;;;;11.14;65.08;97608.10;106153;1273;97946;-64
2022/09/18 00:21:51;;;;;;;28.70;17.70;;;;;;;11.13;64.82;97607.73;106162;1274;97753;-65
2022/09/18 00:24:22;;;;;;;28.00;17.40;;;;;;;11.11;65.00;97607.63;106235;1274;110996;-66
2022/09/18 00:26:50;;;;;;;27.70;17.20;;;;;;;11.09;65.15;97601.44;106176;1274;97927;-65
2022/09/18 00:29:20;;;;;;;28.60;18.30;;;;;;;11.07;65.01;97598.43;106179;1274;108485;-64
2022/09/18 00:31:48;;;;;;;28.90;17.50;;;;;;;11.07;65.25;97592.27;106137;1274;97960;-63
2022/09/18 00:34:19;;;;;;;28.80;18.20;;;;;;;11.07;65.28;97598.27;106244;1274;96696;-63
2022/09/18 00:36:47;;;;;;;30.80;17.90;;;;;;;11.06;65.37;97594.24;106112;1274;111511;-65
2022/09/18 00:39:15;;;;;;;24.00;15.60;;;;;;;11.07;65.64;97589.96;106127;1274;96580;-65
2022/09/18 00:41:46;;;;;;;28.40;16.00;;;;;;;11.06;65.53;97587.86;106124;1274;108648;-65
2022/09/18 00:44:34;;;;;;;29.10;17.40;;;;;;;11.05;65.63;97585.11;106162;1274;97871;-65
2022/09/18 00:47:15;;;;;;;26.50;16.20;;;;;;;11.04;65.75;97587.94;106094;1274;98393;-63
2022/09/18 00:50:03;;;;;;;28.20;16.80;;;;;;;11.02;65.45;97585.06;106104;1274;112022;-65
2022/09/18 00:52:45;;;;;;;28.60;16.50;;;;;;;10.99;65.77;97583.60;106151;1274;95372;-63
2022/09/18 00:55:17;;;;;;;28.90;16.70;;;;;;;10.97;65.76;97580.59;106164;1274;108325;-70
2022/09/18 00:57:50;;;;;;;28.20;17.60;;;;;;;10.94;65.68;97577.84;106070;1274;98011;-65
2022/09/18 01:00:19;;;;;;;25.70;16.20;;;;;;;10.92;65.91;97576.18;106082;1274;96389;-66
2022/09/18 01:02:49;;;;;;;30.30;17.50;;;;;;;10.91;66.00;97570.52;106162;1274;110985;-64
2022/09/18 01:05:40;;;;;;;27.20;16.60;;;;;;;10.91;65.98;97569.88;106142;1274;98600;-64
2022/09/18 01:08:41;;;;;;;29.20;17.20;;;;;;;10.89;66.11;97570.00;106175;1274;107920;-65
2022/09/18 01:11:37;;;;;;;25.40;14.70;;;;;;;10.89;66.27;97566.84;106150;1274;98443;-64
2022/09/18 01:14:30;;;;;;;27.20;15.00;;;;;;;10.87;66.40;97566.70;106095;1274;95184;-64
2022/09/18 01:17:01;;;;;;;28.00;15.50;;;;;;;10.86;66.23;97563.18;106030;1274;112015;-64
2022/09/18 01:20:10;;;;;;;28.60;16.00;;;;;;;10.84;66.30;97563.20;106092;1274;95295;-62
2022/09/18 01:23:04;;;;;;;24.80;14.60;;;;;;;10.84;66.48;97566.11;106079;1274;108639;-65
2022/09/18 01:25:51;;;;;;;27.00;15.30;;;;;;;10.83;66.59;97562.48;106164;1273;95723;-65
2022/09/18 01:28:29;;;;;;;30.40;16.40;;;;;;;10.84;66.75;97561.98;106111;1275;97929;-64
2022/09/18 01:31:08;;;;;;;28.00;16.70;;;;;;;10.86;66.75;97562.88;106167;1274;111540;-65
2022/09/18 01:33:48;;;;;;;27.10;15.50;;;;;;;10.87;66.82;97563.66;106150;1274;95432;-64
2022/09/18 01:36:23;;;;;;;25.80;16.00;;;;;;;10.88;67.01;97558.81;106107;1274;108233;-63
2022/09/18 01:39:00;;;;;;;29.70;17.00;;;;;;;10.88;66.74;97561.81;106190;1274;97886;-64
2022/09/18 01:41:30;;;;;;;28.40;16.30;;;;;;;10.86;66.77;97560.33;106072;1274;98014;-64
2022/09/18 01:44:12;;;;;;;25.50;15.80;;;;;;;10.84;66.89;97560.06;105982;1274;113787;-64
2022/09/18 01:46:43;;;;;;;30.70;17.00;;;;;;;10.82;66.89;97560.59;107894;1274;97654;-65
2022/09/18 01:49:19;;;;;;;27.10;16.40;;;;;;;10.80;66.93;97556.70;106030;1274;108408;-65
2022/09/18 01:52:01;;;;;;;29.00;16.90;;;;;;;10.78;66.89;97557.97;105990;1274;97877;-65
2022/09/18 01:54:38;;;;;;;26.30;16.00;;;;;;;10.75;67.00;97553.95;105992;1275;98005;-61
2022/09/18 01:57:35;;;;;;;29.00;15.90;;;;;;;10.74;67.17;97557.45;106000;1274;112051;-64
2022/09/18 02:00:09;;;;;;;27.10;16.50;;;;;;;10.73;67.24;97555.61;106060;1275;97883;-64
2022/09/18 02:02:44;;;;;;;26.90;15.50;;;;;;;10.73;67.40;97553.88;105999;1275;105983;-65
2022/09/18 02:05:48;;;;;;;28.50;18.00;;;;;;;10.74;67.37;97558.23;106003;1274;97879;-65
2022/09/18 02:08:28;;;;;;;26.40;15.90;;;;;;;10.73;67.43;97555.94;106068;1274;97857;-65
2022/09/18 02:11:07;;;;;;;27.70;15.70;;;;;;;10.73;67.53;97554.72;106029;1274;112089;-66
2022/09/18 02:13:54;;;;;;;26.10;16.20;;;;;;;10.73;67.65;97552.58;105995;1274;97884;-67
2022/09/18 02:16:35;;;;;;;26.50;15.50;;;;;;;10.74;67.64;97551.32;105967;1274;107636;-64
2022/09/18 02:19:34;;;;;;;27.70;16.00;;;;;;;10.72;67.79;97547.38;106153;1274;95354;-65
2022/09/18 02:22:08;;;;;;;25.80;16.20;;;;;;;10.72;67.72;97550.02;106173;1274;97892;-65
2022/09/18 02:24:40;;;;;;;28.90;16.90;;;;;;;10.70;67.83;97547.00;106153;1274;111650;-66
2022/09/18 02:27:12;;;;;;;27.40;16.10;;;;;;;10.69;67.85;97542.67;106026;1274;95206;-64
2022/09/18 02:29:45;;;;;;;26.10;15.30;;;;;;;10.68;67.99;97546.65;105969;1275;108722;-64
2022/09/18 02:32:13;;;;;;;24.80;15.30;;;;;;;10.70;68.10;97546.00;105970;1274;96355;-65
2022/09/18 02:34:41;;;;;;;28.40;16.50;;;;;;;10.70;68.08;97545.73;105992;1274;97854;-62
2022/09/18 02:37:17;;;;;;;26.90;15.40;;;;;;;10.71;67.97;97545.88;105965;1276;112065;-64
2022/09/18 02:40:00;;;;;;;26.40;15.50;;;;;;;10.69;68.10;97543.43;106036;1275;98418;-64
2022/09/18 02:43:02;;;;;;;27.50;15.70;;;;;;;10.69;68.16;97542.16;106110;1274;107882;-64
2022/09/18 02:45:54;;;;;;;25.30;14.60;;;;;;;10.69;68.35;97541.50;106099;1275;95233;-63
2022/09/18 02:48:22;;;;;;;30.20;15.10;;;;;;;10.68;68.29;97538.77;106138;1274;97882;-64
2022/09/18 02:51:08;;;;;;;26.70;15.40;;;;;;;10.68;68.49;97535.92;106077;1274;112115;-63
2022/09/18 02:54:02;;;;;;;29.40;15.40;;;;;;;10.68;68.49;97537.44;106052;1274;95202;-65
2022/09/18 02:56:58;;;;;;;26.10;15.40;;;;;;;10.70;68.72;97537.45;106052;1274;108429;-64
2022/09/18 02:59:39;;;;;;;26.90;14.80;;;;;;;10.71;68.64;97535.05;106109;1274;98317;-64
2022/09/18 03:02:09;;;;;;;25.00;15.20;;;;;;;10.72;68.65;97536.58;106230;1274;97826;-65
2022/09/18 03:04:39;;;;;;;26.40;15.70;;;;;;;10.74;68.59;97535.70;106095;1274;111921;-65
2022/09/18 03:07:13;;;;;;;25.80;14.40;;;;;;;10.74;68.78;97534.27;106094;1274;95251;-63
2022/09/18 03:09:44;;;;;;;27.80;14.70;;;;;;;10.74;68.79;97533.67;105986;1274;107731;-64
2022/09/18 03:12:14;;;;;;;25.00;14.60;;;;;;;10.77;68.78;97537.17;106166;1274;96353;-64
2022/09/18 03:14:43;;;;;;;26.00;13.70;;;;;;;10.78;68.80;97533.02;106170;1274;97896;-64
2022/09/18 03:17:11;;;;;;;24.50;15.30;;;;;;;10.78;68.81;97533.85;106218;1274;112136;-65
2022/09/18 03:19:43;;;;;;;29.20;14.80;;;;;;;10.77;68.82;97531.66;106207;1274;96409;-64
2022/09/18 03:22:12;;;;;;;23.20;13.60;;;;;;;10.75;69.01;97526.91;106220;1274;109509;-65
2022/09/18 03:24:42;;;;;;;25.60;14.70;;;;;;;10.76;69.02;97533.36;106156;1274;97975;-63
2022/09/18 03:27:12;;;;;;;24.60;13.80;;;;;;;10.77;68.85;97532.05;106084;1274;97950;-64
2022/09/18 03:29:40;;;;;;;25.50;13.60;;;;;;;10.75;69.06;97530.77;106061;1274;112116;-65
2022/09/18 03:32:12;;;;;;;24.30;13.80;;;;;;;10.74;69.19;97530.68;106093;1274;98097;-64
2022/09/18 03:34:40;;;;;;;24.60;13.60;;;;;;;10.76;69.08;97529.51;106064;1274;108349;-65
2022/09/18 03:37:08;;;;;;;25.00;13.90;;;;;;;10.76;69.10;97528.68;106052;1274;97988;-64
2022/09/18 03:39:36;;;;;;;24.90;13.10;;;;;;;10.77;69.26;97528.45;106119;1274;97875;-64
2022/09/18 03:42:06;;;;;;;24.50;14.00;;;;;;;10.78;69.33;97528.66;106136;1274;111722;-64
2022/09/18 03:44:34;;;;;;;25.00;14.70;;;;;;;10.79;69.23;97527.54;106082;1274;97715;-64
2022/09/18 03:47:04;;;;;;;24.20;14.40;;;;;;;10.78;69.28;97529.45;106031;1274;108395;-63
2022/09/18 03:49:32;;;;;;;26.30;15.20;;;;;;;10.78;69.37;97527.33;106077;1275;98075;-66
2022/09/18 03:52:03;;;;;;;25.10;13.10;;;;;;;10.78;69.41;97527.86;106009;1275;97891;-64
2022/09/18 03:54:30;;;;;;;24.90;13.40;;;;;;;10.78;69.49;97526.08;103523;1274;3383487;-64
2022/09/18 03:57:00;;;;;;;24.30;13.70;;;;;;;10.78;69.42;97524.65;106001;1275;108330;-65
2022/09/18 03:59:28;;;;;;;23.80;13.50;;;;;;;10.76;69.35;97523.66;105980;1274;97842;-66
2022/09/18 04:01:56;;;;;;;24.60;14.00;;;;;;;10.75;69.49;97524.64;105980;1275;97845;-65
2022/09/18 04:04:28;;;;;;;24.10;14.50;;;;;;;10.75;69.59;97525.87;105981;1275;111966;-65
2022/09/18 04:06:56;;;;;;;25.90;14.20;;;;;;;10.74;69.56;97525.02;106011;1275;97910;-63
2022/09/18 04:09:24;;;;;;;25.90;14.10;;;;;;;10.74;69.72;97526.66;105976;1275;108337;-64
2022/09/18 04:11:54;;;;;;;26.40;14.20;;;;;;;10.73;69.69;97531.31;105983;1274;95200;-63
2022/09/18 04:14:22;;;;;;;22.70;12.60;;;;;;;10.72;69.81;97526.95;106039;1274;98462;-64
2022/09/18 04:16:56;;;;;;;24.90;13.00;;;;;;;10.72;69.79;97531.42;106084;1274;111250;-64
2022/09/18 04:19:24;;;;;;;23.70;13.50;;;;;;;10.73;69.85;97537.86;106105;1275;95597;-63
2022/09/18 04:21:52;;;;;;;22.00;12.40;;;;;;;10.72;69.68;97533.55;106019;1275;109048;-64
2022/09/18 04:24:20;;;;;;;25.00;13.60;;;;;;;10.71;69.87;97535.77;105997;1277;97918;-63
2022/09/18 04:26:49;;;;;;;24.00;13.30;;;;;;;10.70;69.96;97534.96;106128;1274;97924;-63
2022/09/18 04:29:17;;;;;;;22.80;12.30;;;;;;;10.69;69.87;97535.64;106208;1274;112108;-64
2022/09/18 04:31:45;;;;;;;22.90;12.50;;;;;;;10.67;69.94;97540.09;106084;1274;97873;-63
2022/09/18 04:34:14;;;;;;;23.00;13.50;;;;;;;10.66;70.01;97538.38;106049;1275;108840;-63
2022/09/18 04:36:44;;;;;;;22.50;13.30;;;;;;;10.66;70.05;97547.39;105952;1277;95477;-63
2022/09/18 04:39:12;;;;;;;24.30;13.20;;;;;;;10.67;70.02;97553.04;106151;1274;95294;-64
2022/09/18 04:41:40;;;;;;;22.40;12.50;;;;;;;10.65;69.91;97548.77;106106;1274;111882;-64
2022/09/18 04:44:09;;;;;;;23.90;11.70;;;;;;;10.63;70.05;97552.55;106141;1274;97986;-66
2022/09/18 04:46:37;;;;;;;20.10;9.60;;;;;;;10.62;70.13;97554.20;106155;1274;108336;-64
2022/09/18 04:49:06;;;;;;;20.60;10.10;;;;;;;10.60;70.07;97556.39;106183;1274;98550;-64
2022/09/18 04:51:34;;;;;;;20.20;9.40;;;;;;;10.56;70.25;97552.98;106035;1274;97906;-64
2022/09/18 04:54:03;;;;;;;19.30;9.40;;;;;;;10.56;70.35;97555.27;106056;1274;112293;-64
2022/09/18 04:56:30;;;;;;;19.30;9.30;;;;;;;10.57;70.31;97554.70;105989;1277;98665;-63
2022/09/18 04:59:00;;;;;;;17.60;8.70;;;;;;;10.54;70.28;97557.10;105974;1277;108365;-63
2022/09/18 05:01:29;;;;;;;18.50;8.80;;;;;;;10.52;70.30;97557.84;105971;1275;97856;-63
2022/09/18 05:03:57;;;;;;;16.70;7.80;;;;;;;10.49;70.32;97556.49;105990;1277;97887;-63
2022/09/18 05:06:27;;;;;;;16.00;8.30;;;;;;;10.47;70.37;97560.23;106038;1274;112012;-64
2022/09/18 05:08:58;;;;;;;15.90;7.40;;;;;;;10.44;70.12;97565.67;106077;1274;97943;-63
2022/09/18 05:11:28;;;;;;;15.90;7.60;;;;;;;10.40;70.33;97573.08;106165;1274;108407;-63
2022/09/18 05:13:58;;;;;;;14.60;7.20;;;;;;;10.37;70.44;97574.59;106212;1274;97967;-63
2022/09/18 05:16:27;;;;;;;14.50;6.90;;;;;;;10.35;70.38;97566.52;106211;1274;98579;-63
2022/09/18 05:18:56;;;;;;;11.60;6.20;;;;;;;10.32;70.48;97563.95;106143;1274;112093;-64
2022/09/18 05:21:26;;;;;;;11.20;6.20;;;;;;;10.30;70.52;97564.98;106231;1274;95368;-64
2022/09/18 05:23:54;;;;;;;12.50;6.30;;;;;;;10.29;70.66;97561.55;106186;1274;107373;-64
2022/09/18 05:26:22;;;;;;;13.80;6.80;;;;;;;10.27;70.49;97558.87;106062;1274;97979;-65
2022/09/18 05:28:50;;;;;;;14.10;6.50;;;;;;;10.26;70.59;97562.17;106089;1274;97940;-61
2022/09/18 05:31:18;;;;;;;12.90;6.50;;;;;;;10.25;70.71;97568.33;106122;1274;112041;-65
2022/09/18 05:33:48;;;;;;;18.00;7.60;;;;;;;10.22;70.75;97574.25;106110;1274;97740;-64
2022/09/18 05:36:16;;;;;;;13.40;7.20;;;;;;;10.23;70.72;97575.39;105966;1274;108118;-64
2022/09/18 05:38:44;;;;;;;15.00;6.80;;;;;;;10.23;70.84;97578.05;106021;1274;97777;-65
2022/09/18 05:41:12;;;;;;;12.40;6.50;;;;;;;10.24;70.87;97580.27;105989;1274;97981;-64
2022/09/18 05:43:46;;;;;;;14.50;7.00;;;;;;;10.23;70.90;97581.77;106085;1274;112046;-64
2022/09/18 05:46:14;;;;;;;14.80;6.70;;;;;;;10.23;70.97;97582.16;106021;1275;97892;-63
2022/09/18 05:48:42;;;;;;;15.70;7.20;;;;;;;10.23;71.13;97583.87;106089;1274;108184;-62
2022/09/18 05:51:10;;;;;;;15.70;7.30;;;;;;;10.25;71.17;97583.16;106103;1274;97874;-63
2022/09/18 05:53:38;;;;;;;14.10;6.80;;;;;;;10.26;71.17;97586.92;106156;1274;97994;-63
2022/09/18 05:56:08;;;;;;;14.40;7.50;;;;;;;10.26;71.08;97587.48;106053;1276;112413;-63
2022/09/18 05:58:37;;;;;;;17.20;7.40;;;;;;;10.26;71.19;97588.25;105976;1274;95489;-62
2022/09/18 06:01:05;;;;;;;12.70;6.00;;;;;;;10.27;71.28;97588.47;106021;1276;108181;-64
2022/09/18 06:03:33;;;;;;;9.50;5.40;;;;;;;10.29;71.23;97595.42;105978;1274;97939;-65
2022/09/18 06:06:00;;;;;;;7.00;4.00;;;;;;;10.29;71.15;97594.67;106062;1275;97867;-67
2022/09/18 06:08:30;;;;;;;9.30;4.20;;;;;;;10.27;71.21;97597.70;105999;1275;112001;-64
2022/09/18 06:11:02;;;;;;;6.30;3.70;;;;;;;10.27;71.35;97598.05;105970;1275;95300;-64
2022/09/18 06:13:30;;;;;;;6.30;3.60;;;;;;;10.26;71.32;97602.03;105982;1274;108634;-65
2022/09/18 06:15:59;;;;;;;7.30;3.70;;;;;;;10.26;71.25;97602.98;106043;1274;97996;-65
2022/09/18 06:18:29;;;;;;;8.80;4.30;;;;;;;10.25;71.37;97610.48;106063;1274;98438;-64
2022/09/18 06:20:59;;;;;;;9.70;4.80;;;;;;;10.24;71.32;97618.17;106068;1274;112090;-64
2022/09/18 06:23:28;;;;;;;10.90;4.00;;;;;;;10.20;71.40;97618.17;106048;1275;97884;-64
2022/09/18 06:26:03;;;;;;;7.00;3.60;;;;;;;10.17;71.38;97629.36;106108;1274;108371;-63
2022/09/18 06:28:33;;;;;;;9.40;4.20;;;;;;;10.09;71.36;97633.89;105980;1274;98003;-63
2022/09/18 06:31:04;;;;;;;12.80;4.30;;;;;;;10.02;71.50;97639.20;106043;1274;97851;-64
2022/09/18 06:33:35;;;;;;;;;;;;;;;9.97;71.47;97649.36;106123;1274;111895;-64
2022/09/18 06:36:07;;;;;;;13.40;3.70;;;;;;;9.91;71.39;97649.23;106027;1274;97874;-64
2022/09/18 06:38:39;;;;;;;9.70;3.40;;;;;;;9.84;71.35;97656.98;105975;1274;108427;-64
2022/09/18 06:41:09;;;;;;;7.00;2.70;;;;;;;9.76;71.43;97660.85;106030;1274;97957;-61
2022/09/18 06:43:37;;;;;;;12.30;3.40;;;;;;;9.68;71.49;97662.09;106082;1274;95255;-63
2022/09/18 06:46:06;;;;;;;13.40;3.90;;;;;;;9.62;71.57;97666.23;106054;1274;112163;-65
2022/09/18 06:48:38;;;;;;;10.80;3.60;;;;;;;9.55;71.53;97669.84;106061;1274;98112;-64
2022/09/18 06:51:08;;;;;;;11.20;3.50;;;;;;;9.52;71.55;97678.27;105895;1274;108426;-64
2022/09/18 06:53:38;;;;;;;11.10;3.60;;;;;;;9.49;71.70;97678.48;106048;1274;97896;-65
2022/09/18 06:56:06;;;;;;;9.80;3.80;;;;;;;9.47;71.76;97680.16;106092;1274;97863;-64
2022/09/18 06:58:34;;;;;;;13.70;4.20;;;;;;;9.47;71.66;97679.63;106093;1274;111838;-64
2022/09/18 07:01:02;;;;;;;10.40;3.80;;;;;;;9.46;71.71;97685.13;106003;1274;98052;-64
2022/09/18 07:03:30;;;;;;;7.20;3.60;;;;;;;9.46;71.88;97682.70;106231;1274;108390;-66
2022/09/18 07:06:00;;;;;;;11.90;3.80;;;;;;;9.46;71.84;97688.85;106205;1274;97944;-63
2022/09/18 07:08:30;;;;;;;8.00;3.20;;;;;;;9.48;71.90;97697.04;106246;1274;97740;-64
2022/09/18 07:11:01;;;;;;;11.50;3.60;;;;;;;9.48;72.00;97702.33;106137;1274;111958;-64
2022/09/18 07:13:32;;;;;;;13.10;3.60;;;;;;;9.44;72.00;97703.06;106208;1274;97912;-65
2022/09/18 07:16:01;;;;;;;9.60;3.30;;;;;;;9.40;71.95;97708.54;106114;1274;108348;-63
2022/09/18 07:18:33;;;;;;;9.90;3.80;;;;;;;9.37;71.90;97710.71;106188;1274;97877;-65
2022/09/18 07:21:00;;;;;;;7.00;3.20;;;;;;;9.35;72.03;97713.60;106186;1274;98590;-64
2022/09/18 07:23:33;;;;;;;8.70;3.20;;;;;;;9.31;72.05;97715.16;106116;1274;111950;-63
2022/09/18 07:26:04;;;;;;;11.50;3.80;;;;;;;9.30;72.05;97717.88;106226;1274;98109;-65
2022/09/18 07:28:32;;;;;;;13.40;3.50;;;;;;;9.29;72.07;97723.16;106207;1274;107876;-63
2022/09/18 07:31:07;;;;;;;10.80;3.60;;;;;;;9.25;72.05;97729.27;106135;1275;99688;-64
2022/09/18 07:33:36;;;;;;;8.70;2.90;;;;;;;9.23;72.16;97733.40;106266;1274;97862;-62
2022/09/18 07:36:06;;;;;;;10.80;3.20;;;;;;;9.20;72.24;97734.50;106135;1274;112033;-62
2022/09/18 07:38:34;;;;;;;11.80;3.00;;;;;;;9.17;72.19;97740.23;106174;1274;97877;-63
2022/09/18 07:41:04;;;;;;;8.60;3.20;;;;;;;9.16;72.33;97742.48;106134;1274;108397;-62
2022/09/18 07:43:34;;;;;;;13.10;3.00;;;;;;;9.15;72.38;97748.58;106105;1274;97948;-63
2022/09/18 07:46:02;;;;;;;12.00;3.30;;;;;;;9.14;72.35;97745.27;106207;1275;97979;-63
2022/09/18 07:48:34;;;;;;;8.40;2.80;;;;;;;9.14;72.34;97750.58;106123;1274;112649;-63
2022/09/18 07:51:04;;;;;;;12.40;3.20;;;;;;;9.16;72.47;97754.45;106163;1274;96477;-62
2022/09/18 07:53:32;;;;;;;11.40;4.00;;;;;;;9.18;72.48;97753.65;106142;1274;108354;-63
2022/09/18 07:56:10;;;;;;;13.30;3.50;;;;;;;9.20;72.47;97750.98;106107;1275;97879;-64
2022/09/18 07:58:38;;;;;;;11.80;3.20;;;;;;;9.20;72.48;97757.99;106155;1274;97849;-63
2022/09/18 08:01:12;;;;;;;12.70;3.10;;;;;;;9.20;72.49;97759.61;106125;1274;112176;-63
2022/09/18 08:03:40;;;;;;;9.40;3.00;;;;;;;9.21;72.61;97759.70;106191;1274;97892;-62
2022/09/18 08:06:12;;;;;;;12.30;3.70;;;;;;;9.23;72.43;97759.34;106226;1274;108247;-63
2022/09/18 08:08:40;;;;;;;12.10;3.60;;;;;;;9.25;72.73;97765.02;106094;1274;97877;-63
2022/09/18 08:11:08;;;;;;;8.40;3.20;;;;;;;9.29;72.67;97762.93;106248;1274;97880;-64
2022/09/18 08:13:39;;;;;;;7.80;3.00;;;;;;;9.31;72.52;97764.54;106243;1274;112292;-66
2022/09/18 08:16:08;;;;;;;9.20;3.70;;;;;;;9.34;72.65;97758.93;106225;1274;97969;-66
2022/09/18 08:18:38;;;;;;;7.70;2.80;;;;;;;9.38;72.65;97763.40;106154;1274;108343;-65
2022/09/18 08:21:07;;;;;;;8.30;2.70;;;;;;;9.40;72.61;97762.67;106230;1273;98062;-63
2022/09/18 08:23:38;;;;;;;10.20;3.10;;;;;;;9.43;72.86;97763.14;106204;1274;96235;-64
2022/09/18 08:26:06;;;;;;;10.20;3.30;;;;;;;9.46;72.89;97765.15;106187;1274;112099;-63
2022/09/18 08:28:37;;;;;;;8.60;2.90;;;;;;;9.50;72.80;97767.06;106215;1274;97873;-63
2022/09/18 08:31:07;;;;;;;9.60;3.10;;;;;;;9.54;72.69;97763.55;106218;1274;107953;-63
2022/09/18 08:33:39;;;;;;;9.00;2.90;;;;;;;9.59;72.79;97758.88;106146;1274;95196;-62
2022/09/18 08:36:08;;;;;;;10.50;3.60;;;;;;;9.66;72.81;97763.73;106128;1274;97861;-63
2022/09/18 08:38:38;;;;;;;11.80;2.90;;;;;;;9.74;72.86;97766.18;106115;1274;112089;-64
2022/09/18 08:41:47;;;;;;;9.20;3.00;;;;;;;9.81;72.74;97764.33;106144;1274;98349;-62
2022/09/18 08:44:30;;;;;;;10.90;2.70;;;;;;;9.91;72.69;97758.66;105824;1275;107959;-63
2022/09/18 08:47:09;;;;;;;9.80;2.90;;;;;;;10.00;72.80;97760.50;106074;1274;97948;-64
2022/09/18 08:50:02;;;;;;;10.20;2.90;;;;;;;10.08;72.80;97765.31;106084;1274;97951;-63
2022/09/18 08:52:38;;;;;;;10.90;3.10;;;;;;;10.17;72.77;97761.81;106086;1274;111546;-63
2022/09/18 08:55:28;;;;;;;9.70;3.00;;;;;;;10.27;72.85;97754.82;106074;1274;95271;-61
2022/09/18 08:58:12;;;;;;;11.80;3.50;;;;;;;10.42;72.87;97754.71;106171;1274;106789;-63
2022/09/18 09:00:46;;;;;;;9.80;2.70;;;;;;;10.55;72.94;97756.02;106157;1274;95569;-62
2022/09/18 09:03:45;;;;;;;9.90;2.50;;;;;;;10.66;72.86;97758.91;106173;1274;95252;-63
2022/09/18 09:06:45;;;;;;;10.30;3.30;;;;;;;10.76;72.91;97752.65;106131;1277;112425;-61
2022/09/18 09:09:18;;;;;;;12.80;3.10;;;;;;;10.82;72.83;97753.12;106099;1274;97900;-63
2022/09/18 09:12:28;;;;;;;8.20;2.50;;;;;;;10.90;72.77;97755.42;106005;1274;107774;-64
2022/09/18 09:15:03;;;;;;;11.90;3.00;;;;;;;10.83;72.66;97756.79;106005;1277;97964;-64
2022/09/18 09:18:00;;;;;;;13.00;3.80;;;;;;;10.82;72.69;97751.75;105999;1274;95283;-64
2022/09/18 09:21:06;;;;;;;8.30;2.90;;;;;;;10.86;72.78;97751.19;105920;1274;111333;-63
2022/09/18 09:24:08;;;;;;;6.80;2.50;;;;;;;11.04;72.73;97751.27;106030;1275;97911;-63
2022/09/18 09:26:41;;;;;;;6.00;2.30;;;;;;;11.23;72.73;97747.85;105959;1274;108449;-64
2022/09/18 09:29:28;;;;;;;5.50;3.10;;;;;;;11.33;72.72;97756.71;106019;1274;97941;-64
2022/09/18 09:32:27;;;;;;;10.70;2.70;;;;;;;11.37;72.70;97753.83;106162;1274;97905;-63
2022/09/18 09:35:15;;;;;;;8.50;2.80;;;;;;;11.35;72.60;97755.21;106122;1274;112150;-64
2022/09/18 09:37:47;;;;;;;8.10;2.20;;;;;;;11.38;72.65;97755.68;106131;1274;97903;-63
2022/09/18 09:40:41;;;;;;;7.60;2.50;;;;;;;11.40;72.62;97757.80;106102;1274;108413;-64
2022/09/18 09:43:26;;;;;;;5.40;1.90;;;;;;;11.42;72.39;97758.14;106148;1274;97957;-63
2022/09/18 09:46:03;;;;;;;8.20;2.60;;;;;;;11.42;72.56;97763.94;106154;1274;97950;-63
2022/09/18 09:48:48;;;;;;;7.60;2.50;;;;;;;11.46;72.52;97771.04;106052;1274;111459;-64
2022/09/18 09:51:52;;;;;;;6.80;2.20;;;;;;;11.48;72.22;97769.98;106073;1274;97872;-63
2022/09/18 09:54:20;;;;;;;10.40;2.80;;;;;;;11.44;72.28;97768.77;106067;1275;108564;-64
2022/09/18 09:57:02;;;;;;;7.90;2.70;;;;;;;11.50;72.38;97777.83;106083;1274;97940;-64
2022/09/18 09:59:38;;;;;;;9.10;2.50;;;;;;;11.57;72.28;97782.94;106149;1274;95206;-62
2022/09/18 10:02:45;;;;;;;7.10;2.30;;;;;;;11.65;72.21;97778.63;106139;1274;111475;-63
2022/09/18 10:05:43;;;;;;;6.70;2.60;;;;;;;11.78;72.12;97783.23;105999;1274;97964;-63
2022/09/18 10:08:38;;;;;;;10.80;2.70;;;;;;;11.91;72.30;97787.48;106143;1274;107710;-64
2022/09/18 10:11:12;;;;;;;6.00;2.70;;;;;;;11.98;72.01;97792.85;106164;1275;95291;-63
2022/09/18 10:13:52;;;;;;;8.90;2.40;;;;;;;11.99;72.05;97793.06;106139;1274;96662;-60
2022/09/18 10:16:32;;;;;;;10.00;2.30;;;;;;;12.04;71.69;97791.72;106059;1274;112544;-64
2022/09/18 10:19:02;;;;;;;7.70;2.10;;;;;;;12.07;71.40;97801.02;106126;1274;97998;-62
2022/09/18 10:21:40;;;;;;;3.40;1.80;;;;;;;12.06;71.54;97801.97;106213;1274;106102;-64
2022/09/18 10:24:16;;;;;;;4.30;1.60;;;;;;;12.06;71.54;97803.02;106116;1274;97941;-65
2022/09/18 10:27:01;;;;;;;6.20;2.10;;;;;;;12.06;71.40;97803.38;106004;1274;98412;-63
2022/09/18 10:29:29;;;;;;;2.30;1.20;;;;;;;12.11;71.43;97811.13;105988;1274;111401;-64
2022/09/18 10:32:12;;;;;;;6.90;1.90;;;;;;;12.12;71.07;97805.86;106079;1274;96429;-65
2022/09/18 10:34:49;;;;;;;4.50;1.90;;;;;;;12.20;71.22;97809.66;106079;1274;107739;-64
2022/09/18 10:37:29;;;;;;;5.70;1.90;;;;;;;12.31;71.13;97805.92;105958;1274;97893;-73
2022/09/18 10:40:00;;;;;;;6.70;1.80;;;;;;;12.39;71.10;97812.60;105902;1274;97972;-66
2022/09/18 10:42:34;;;;;;;4.30;2.10;;;;;;;12.45;70.82;97817.67;106020;1274;112229;-66
2022/09/18 10:45:25;;;;;;;5.80;2.30;;;;;;;12.42;70.81;97814.21;106035;1274;97943;-65
2022/09/18 10:48:13;;;;;;;8.70;3.00;;;;;;;12.40;70.75;97820.14;106096;1274;108185;-67
2022/09/18 10:51:05;;;;;;;5.70;2.80;;;;;;;12.35;70.65;97820.96;106018;1274;97889;-65
2022/09/18 10:53:41;;;;;;;3.70;2.40;;;;;;;12.33;70.59;97828.27;106208;1274;97788;-65
2022/09/18 10:56:20;;;;;;;7.60;3.00;;;;;;;12.31;70.44;97827.23;106137;1274;112109;-66
2022/09/18 10:58:50;;;;;;;5.40;2.70;;;;;;;12.32;70.43;97827.34;106079;1274;97874;-66
2022/09/18 11:01:23;;;;;;;9.10;3.20;;;;;;;12.31;70.33;97830.69;106026;1274;109772;-65
2022/09/18 11:04:01;;;;;;;6.70;3.00;;;;;;;12.33;70.38;97831.11;105979;1274;97878;-69
2022/09/18 11:06:37;;;;;;;8.80;3.50;;;;;;;12.39;70.47;97833.92;106035;1274;96370;-63
2022/09/18 11:09:17;;;;;;;9.50;3.30;;;;;;;12.42;70.24;97839.92;106100;1274;111412;-65
2022/09/18 11:11:50;;;;;;;5.10;2.80;;;;;;;12.42;70.10;97833.45;106070;1274;98973;-65
2022/09/18 11:14:29;;;;;;;6.20;3.40;;;;;;;12.50;70.10;97834.41;106205;1274;109267;-66
2022/09/18 11:17:01;;;;;;;12.30;4.20;;;;;;;12.57;69.96;97829.69;106140;1274;97950;-64
2022/09/18 11:19:41;;;;;;;7.50;3.10;;;;;;;12.61;69.92;97839.24;106108;1274;95280;-65
2022/09/18 11:22:52;;;;;;;7.60;3.20;;;;;;;12.60;69.54;97836.16;106168;1274;111436;-64
2022/09/18 11:25:28;;;;;;;4.70;2.90;;;;;;;12.58;69.54;97839.73;105763;1280;97851;-65
2022/09/18 11:28:01;;;;;;;11.40;3.60;;;;;;;12.59;69.49;97834.68;105714;1280;108449;-66
2022/09/18 11:30:37;;;;;;;8.30;2.90;;;;;;;12.58;69.51;97836.15;105897;1274;99311;-64
2022/09/18 11:33:08;;;;;;;8.40;3.10;;;;;;;12.61;69.29;97837.83;106126;1274;97755;-65
2022/09/18 11:35:53;;;;;;;7.90;3.40;;;;;;;12.62;69.30;97841.22;105972;1274;113590;-65
2022/09/18 11:38:26;;;;;;;6.20;2.70;;;;;;;12.60;69.10;97839.34;105841;1274;97708;-64
2022/09/18 11:41:00;;;;;;;6.30;2.70;;;;;;;12.55;69.22;97839.15;105962;1274;107843;-64
2022/09/18 11:43:38;;;;;;;5.90;2.90;;;;;;;12.46;68.91;97841.58;106075;1274;97938;-66
2022/09/18 11:46:28;;;;;;;6.70;2.70;;;;;;;12.41;68.96;97845.01;106083;1274;97870;-65
2022/09/18 11:49:24;;;;;;;8.30;2.80;;;;;;;12.34;68.88;97847.55;106043;1274;112141;-65
2022/09/18 11:52:04;;;;;;;5.50;3.20;;;;;;;12.29;68.64;97848.46;106074;1274;98285;-63